Time;durP1;ratioP1;P1;durP2;ratioP2;P2;SDS_P1;SDS_P2;PMS_P1;PMS_P2;Temp;Humidity;BMP_temperature;BMP_pressure;BME280_temperature;BME280_humidity;BME280_pressure;Samples;Min_cycle;Max_cycle;Signal;HPM_P1;HPM_P2
2023/06/18 00:00:41;;;;;;;5.70;5.00;;;;;;;23.73;44.23;99681.02;109390;1252;64997;-76
2023/06/18 00:03:09;;;;;;;7.00;5.50;;;;;;;23.79;43.78;99679.70;109343;1252;58239;-76
2023/06/18 00:05:36;;;;;;;8.00;5.40;;;;;;;23.83;43.66;99677.92;109357;1253;58574;-77
2023/06/18 00:08:05;;;;;;;7.60;5.20;;;;;;;23.84;43.64;99675.02;109348;1254;66285;-76
2023/06/18 00:10:33;;;;;;;7.00;5.70;;;;;;;23.84;43.69;99674.85;109416;1253;60844;-77
2023/06/18 00:13:00;;;;;;;9.00;5.30;;;;;;;23.83;43.74;99671.78;109491;1254;66074;-76
2023/06/18 00:15:28;;;;;;;6.20;5.20;;;;;;;23.80;43.62;99667.38;109318;1254;58175;-77
2023/06/18 00:17:55;;;;;;;6.30;5.40;;;;;;;23.79;43.46;99668.86;109450;1253;58073;-77
2023/06/18 00:20:23;;;;;;;7.40;5.30;;;;;;;23.78;43.56;99677.66;109334;1256;66308;-77
2023/06/18 00:22:52;;;;;;;7.10;5.30;;;;;;;23.75;43.85;99676.50;109300;1252;60661;-77
2023/06/18 00:25:21;;;;;;;8.80;5.10;;;;;;;23.69;44.03;99678.55;109401;1258;64689;-77
2023/06/18 00:27:48;;;;;;;6.10;5.50;;;;;;;23.61;44.24;99677.55;109284;1254;58245;-77
2023/06/18 00:30:16;;;;;;;6.30;5.70;;;;;;;23.56;44.33;99679.73;109319;1253;58526;-77
2023/06/18 00:32:44;;;;;;;6.20;5.40;;;;;;;23.50;44.20;99680.36;109404;1254;67488;-77
2023/06/18 00:35:12;;;;;;;7.80;5.50;;;;;;;23.43;44.33;99681.38;109319;1253;59765;-78
2023/06/18 00:37:43;;;;;;;8.10;5.30;;;;;;;23.33;44.54;99680.81;109254;1253;66293;-78
2023/06/18 00:40:12;;;;;;;8.20;5.40;;;;;;;23.24;44.81;99683.01;109392;1253;58138;-75
2023/06/18 00:42:40;;;;;;;7.30;5.50;;;;;;;23.16;44.91;99685.48;109146;1254;58249;-77
2023/06/18 00:45:12;;;;;;;7.40;5.50;;;;;;;23.08;44.98;99680.05;109376;1254;66880;-77
2023/06/18 00:47:44;;;;;;;6.30;5.60;;;;;;;23.01;45.22;99682.09;109407;1252;60128;-77
2023/06/18 00:50:16;;;;;;;7.20;5.80;;;;;;;22.94;45.42;99681.15;109368;1253;65983;-77
2023/06/18 00:52:47;;;;;;;8.50;5.90;;;;;;;22.87;45.63;99685.59;109270;1253;58144;-77
2023/06/18 00:55:18;;;;;;;7.20;5.80;;;;;;;22.80;45.91;99685.62;109520;1254;58195;-76
2023/06/18 00:57:49;;;;;;;8.20;6.00;;;;;;;22.74;45.87;99687.02;109423;1253;66304;-75
2023/06/18 01:00:19;;;;;;;7.20;5.70;;;;;;;22.70;46.12;99687.02;109589;1254;60536;-76
2023/06/18 01:02:49;;;;;;;9.80;5.80;;;;;;;22.66;46.33;99686.54;109485;1253;66636;-77
2023/06/18 01:05:20;;;;;;;7.60;5.90;;;;;;;22.60;46.53;99688.40;109574;1253;58120;-76
2023/06/18 01:07:48;;;;;;;9.50;5.90;;;;;;;22.54;46.69;99683.88;109612;1253;58172;-77
2023/06/18 01:10:17;;;;;;;7.90;6.20;;;;;;;22.49;46.86;99682.50;109413;1254;67421;-76
2023/06/18 01:12:48;;;;;;;11.40;5.90;;;;;;;22.43;47.14;99681.76;109300;1251;59384;-77
2023/06/18 01:15:17;;;;;;;6.30;5.70;;;;;;;22.38;47.32;99685.30;109549;1254;66273;-77
2023/06/18 01:17:48;;;;;;;7.40;6.00;;;;;;;22.33;47.52;99689.70;109415;1254;58145;-76
2023/06/18 01:20:17;;;;;;;6.40;5.80;;;;;;;22.29;47.64;99693.54;109622;1254;58298;-77
2023/06/18 01:23:01;;;;;;;6.90;6.00;;;;;;;22.25;47.73;99696.33;109427;1254;66762;-77
2023/06/18 01:25:32;;;;;;;7.90;5.70;;;;;;;22.23;47.76;99698.54;109321;1253;59590;-77
2023/06/18 01:28:00;;;;;;;6.60;6.00;;;;;;;22.20;47.84;99699.09;109421;1253;66498;-76
2023/06/18 01:30:28;;;;;;;6.80;5.90;;;;;;;22.17;47.92;99698.80;109490;1253;58131;-77
2023/06/18 01:32:55;;;;;;;9.30;5.80;;;;;;;22.14;48.00;99703.13;109527;1253;58034;-76
2023/06/18 01:35:24;;;;;;;6.20;5.60;;;;;;;22.09;48.16;99700.73;109660;1254;67241;-76
2023/06/18 01:38:13;;;;;;;6.90;5.80;;;;;;;22.05;48.32;99699.61;109494;1254;60287;-76
2023/06/18 01:40:54;;;;;;;8.30;6.00;;;;;;;22.01;48.40;99701.53;109581;1254;65269;-75
2023/06/18 01:44:00;;;;;;;8.00;6.30;;;;;;;21.99;48.32;99702.98;109329;1254;58170;-76
2023/06/18 01:46:28;;;;;;;6.90;6.00;;;;;;;21.99;48.41;99706.33;109302;1253;58133;-76
2023/06/18 01:49:06;;;;;;;7.10;6.10;;;;;;;21.98;48.50;99702.27;109452;1252;67040;-76
2023/06/18 01:51:35;;;;;;;7.10;5.90;;;;;;;22.00;48.61;99705.96;109376;1253;59537;-76
2023/06/18 01:58:41;;;;;;;8.10;5.70;;;;;;;21.98;48.66;99704.97;109574;1254;58518;-76
2023/06/18 02:01:12;;;;;;;11.00;6.60;;;;;;;21.94;48.95;99704.45;109360;1254;58264;-76
2023/06/18 02:03:40;;;;;;;9.30;6.80;;;;;;;21.88;49.07;99706.52;109493;1254;67265;-77
2023/06/18 02:10:43;;;;;;;8.00;6.10;;;;;;;21.74;49.44;99713.89;109580;1254;64679;-76
2023/06/18 02:13:10;;;;;;;9.00;6.30;;;;;;;21.69;49.40;99711.45;109443;1254;58071;-75
2023/06/18 02:15:42;;;;;;;8.30;6.30;;;;;;;21.66;49.58;99714.98;109612;1253;58490;-76
2023/06/18 02:18:11;;;;;;;8.50;6.50;;;;;;;21.60;49.59;99717.39;109359;1253;65904;-77
2023/06/18 02:20:40;;;;;;;7.40;6.30;;;;;;;21.55;49.87;99717.94;109609;1254;59514;-76
2023/06/18 02:23:08;;;;;;;9.70;7.20;;;;;;;21.47;50.17;99720.92;109471;1254;66250;-76
2023/06/18 02:25:35;;;;;;;14.30;9.20;;;;;;;21.42;50.37;99723.48;109452;1254;58118;-76
2023/06/18 02:28:04;;;;;;;12.90;9.40;;;;;;;21.39;50.51;99727.04;109455;1253;58185;-77
2023/06/18 02:30:31;;;;;;;12.00;8.90;;;;;;;21.36;50.73;99728.70;109610;1253;67336;-76
2023/06/18 02:33:01;;;;;;;9.90;7.70;;;;;;;21.35;50.87;99730.90;109506;1254;60014;-76
2023/06/18 02:35:29;;;;;;;9.90;7.70;;;;;;;21.33;50.92;99733.96;109465;1253;66535;-76
2023/06/18 02:37:56;;;;;;;8.90;7.50;;;;;;;21.32;50.95;99737.58;109429;1254;58148;-76
2023/06/18 02:40:25;;;;;;;7.50;6.60;;;;;;;21.26;51.13;99740.84;109436;1254;58194;-77
2023/06/18 02:42:53;;;;;;;8.40;7.50;;;;;;;21.22;51.32;99738.17;109468;1253;66966;-77
2023/06/18 02:45:21;;;;;;;8.20;6.80;;;;;;;21.19;51.65;99738.79;109188;1254;221903;-76
2023/06/18 02:47:51;;;;;;;10.80;7.60;;;;;;;21.16;51.72;99744.71;109232;1253;65207;-77
2023/06/18 02:50:19;;;;;;;16.90;10.60;;;;;;;21.13;51.79;99746.67;109443;1254;58094;-77
2023/06/18 02:52:46;;;;;;;12.80;11.10;;;;;;;21.11;51.82;99747.99;109344;1256;58033;-77
2023/06/18 02:55:14;;;;;;;14.30;9.50;;;;;;;21.10;51.99;99746.13;109335;1253;67402;-77
2023/06/18 02:57:43;;;;;;;8.80;7.90;;;;;;;21.10;52.16;99748.36;109327;1253;59353;-77
2023/06/18 03:00:11;;;;;;;10.30;7.80;;;;;;;21.10;52.32;99747.04;109432;1254;65217;-76
2023/06/18 03:02:41;;;;;;;10.60;8.00;;;;;;;21.12;52.35;99743.07;109397;1254;58176;-77
2023/06/18 03:05:13;;;;;;;10.50;7.90;;;;;;;21.14;52.32;99745.15;109356;1253;58093;-77
2023/06/18 03:07:41;;;;;;;8.50;7.60;;;;;;;21.16;52.42;99745.24;109325;1253;65752;-77
2023/06/18 03:10:09;;;;;;;9.30;8.20;;;;;;;21.19;52.41;99742.09;109459;1253;59519;-76
2023/06/18 03:12:36;;;;;;;8.80;7.60;;;;;;;21.23;52.43;99747.02;109319;1253;65699;-77
2023/06/18 03:15:14;;;;;;;11.20;8.20;;;;;;;21.26;52.52;99750.31;109271;1253;58516;-77
2023/06/18 03:22:32;;;;;;;8.80;7.00;;;;;;;21.43;52.29;99746.81;109592;1252;63941;-77
2023/06/18 03:25:00;;;;;;;8.10;7.10;;;;;;;21.50;52.30;99749.03;109312;1253;59627;-77
2023/06/18 03:27:28;;;;;;;9.60;7.10;;;;;;;21.56;52.21;99750.23;109327;1253;65734;-77
2023/06/18 03:29:56;;;;;;;8.70;7.40;;;;;;;21.60;52.32;99752.66;109216;1254;58539;-76
2023/06/18 03:32:24;;;;;;;9.50;7.50;;;;;;;21.65;52.30;99757.16;109214;1254;58230;-76
2023/06/18 03:34:52;;;;;;;13.50;7.30;;;;;;;21.70;52.35;99757.23;109185;1254;67117;-77
2023/06/18 03:37:20;;;;;;;8.70;7.20;;;;;;;21.74;52.45;99754.96;109179;1254;59344;-77
2023/06/18 03:39:47;;;;;;;7.90;7.10;;;;;;;21.79;52.45;99754.08;109307;1257;66254;-76
2023/06/18 03:42:15;;;;;;;9.20;7.20;;;;;;;21.84;52.44;99752.34;109152;1254;58632;-76
2023/06/18 03:44:43;;;;;;;11.50;7.30;;;;;;;21.90;52.28;99750.78;109162;1254;58270;-76
2023/06/18 03:47:11;;;;;;;7.70;6.90;;;;;;;21.97;52.19;99754.41;109305;1254;67240;-76
2023/06/18 03:49:38;;;;;;;8.20;6.70;;;;;;;22.07;51.98;99749.80;109186;1254;60471;-76
2023/06/18 03:52:06;;;;;;;8.60;7.00;;;;;;;22.17;51.92;99750.66;109164;1254;65150;-76
2023/06/18 03:54:35;;;;;;;8.70;7.00;;;;;;;22.27;52.00;99754.10;109147;1255;58119;-76
2023/06/18 03:57:02;;;;;;;11.60;7.30;;;;;;;22.38;51.80;99754.92;109348;1256;58068;-76
2023/06/18 04:04:05;;;;;;;8.10;6.30;;;;;;;22.74;50.77;99757.43;109269;1255;60125;-76
2023/06/18 04:06:32;;;;;;;9.40;6.60;;;;;;;22.91;50.33;99759.80;109104;1255;65945;-76
2023/06/18 04:09:00;;;;;;;8.60;6.40;;;;;;;23.06;49.87;99760.91;109152;1257;58220;-76
2023/06/18 04:11:27;;;;;;;8.10;6.50;;;;;;;23.24;49.12;99758.17;109260;1256;58198;-76
2023/06/18 04:13:55;;;;;;;8.10;6.70;;;;;;;23.39;48.30;99760.54;109254;1255;67468;-77
2023/06/18 04:16:24;;;;;;;7.20;5.90;;;;;;;23.54;48.05;99760.55;109292;1255;59323;-77
2023/06/18 04:18:52;;;;;;;9.70;6.20;;;;;;;23.68;47.43;99769.06;109118;1256;65898;-76
2023/06/18 04:21:20;;;;;;;7.20;6.20;;;;;;;23.82;47.19;99768.13;109240;1256;58150;-76
2023/06/18 04:23:48;;;;;;;8.20;6.30;;;;;;;23.96;46.74;99769.91;109136;1257;58232;-76
2023/06/18 04:26:15;;;;;;;7.00;6.30;;;;;;;24.09;46.10;99775.12;109157;1256;67427;-76
2023/06/18 04:28:44;;;;;;;6.90;6.30;;;;;;;24.23;45.75;99776.50;109304;1256;59898;-76
2023/06/18 04:31:11;;;;;;;7.50;6.10;;;;;;;24.35;45.41;99775.46;109197;1254;64886;-77
2023/06/18 04:33:39;;;;;;;7.00;5.80;;;;;;;24.46;45.32;99773.09;109316;1254;58160;-76
2023/06/18 04:36:07;;;;;;;6.90;5.80;;;;;;;24.60;45.21;99774.91;109357;1257;58183;-77
2023/06/18 04:38:36;;;;;;;11.60;6.30;;;;;;;24.71;45.06;99777.78;109275;1254;66879;-75
2023/06/18 04:41:03;;;;;;;7.20;6.40;;;;;;;24.83;44.67;99778.84;109188;1254;60231;-76
2023/06/18 04:43:31;;;;;;;7.70;5.70;;;;;;;24.95;44.51;99780.45;109175;1254;66237;-76
2023/06/18 04:45:59;;;;;;;7.20;6.40;;;;;;;25.07;44.24;99783.13;109338;1254;58088;-73
2023/06/18 04:48:27;;;;;;;8.80;6.20;;;;;;;25.19;43.85;99783.55;109254;1254;58020;-76
2023/06/18 04:50:55;;;;;;;6.80;6.10;;;;;;;25.30;43.71;99787.36;109393;1254;65904;-76
2023/06/18 04:53:22;;;;;;;9.20;5.90;;;;;;;25.36;43.59;99787.34;109406;1254;60470;-76
2023/06/18 04:55:50;;;;;;;6.90;6.20;;;;;;;25.45;43.45;99789.89;109139;1254;65796;-76
2023/06/18 04:58:20;;;;;;;6.30;5.70;;;;;;;25.57;43.32;99795.04;109164;1254;58055;-78
2023/06/18 05:00:50;;;;;;;8.10;5.90;;;;;;;25.66;42.97;99800.02;109198;1254;58217;-77
2023/06/18 05:03:17;;;;;;;6.90;6.00;;;;;;;25.76;42.76;99800.55;109321;1254;67022;-77
2023/06/18 05:05:46;;;;;;;6.50;5.90;;;;;;;25.87;42.55;99800.59;109347;1254;58664;-78
2023/06/18 05:08:14;;;;;;;9.90;6.10;;;;;;;25.98;42.41;99804.20;109306;1256;65587;-78
2023/06/18 05:10:42;;;;;;;6.60;5.90;;;;;;;26.07;42.14;99809.33;109167;1254;58186;-78
2023/06/18 05:13:10;;;;;;;7.20;5.40;;;;;;;26.12;42.07;99807.55;109201;1254;58035;-77
2023/06/18 05:15:38;;;;;;;8.10;6.10;;;;;;;26.15;42.10;99805.98;109193;1254;67389;-78
2023/06/18 05:18:06;;;;;;;6.30;5.60;;;;;;;26.23;41.65;99812.98;109167;1254;59967;-78
2023/06/18 05:20:33;;;;;;;6.60;5.90;;;;;;;26.27;41.42;99809.44;109308;1254;66304;-78
2023/06/18 05:23:02;;;;;;;7.90;5.90;;;;;;;26.37;40.40;99807.98;109118;1254;58173;-77
2023/06/18 05:25:30;;;;;;;7.10;5.90;;;;;;;26.50;40.04;99810.39;109204;1254;58206;-78
2023/06/18 05:27:57;;;;;;;7.80;5.70;;;;;;;26.61;40.22;99811.49;109332;1254;65876;-79
2023/06/18 05:34:59;;;;;;;8.80;5.90;;;;;;;26.89;40.11;99816.48;109457;1254;66564;-78
2023/06/18 05:37:27;;;;;;;8.60;6.10;;;;;;;27.01;39.72;99816.86;109370;1255;58145;-79
2023/06/18 05:39:56;;;;;;;10.10;6.00;;;;;;;27.06;39.51;99821.15;109196;1254;58332;-76
2023/06/18 05:42:24;;;;;;;7.30;5.80;;;;;;;27.11;39.67;99823.95;109054;1254;66234;-77
2023/06/18 05:44:51;;;;;;;8.30;5.80;;;;;;;27.17;39.90;99824.11;109003;1254;60641;-75
2023/06/18 05:47:19;;;;;;;8.00;5.90;;;;;;;27.25;40.21;99825.34;109172;1254;65840;-76
2023/06/18 05:49:47;;;;;;;6.90;5.60;;;;;;;27.36;39.83;99831.87;109054;1254;58112;-76
2023/06/18 05:52:15;;;;;;;9.40;5.60;;;;;;;27.45;39.70;99834.23;108973;1254;58317;-76
2023/06/18 05:54:43;;;;;;;6.70;6.00;;;;;;;27.51;39.71;99831.21;109100;1256;67315;-76
2023/06/18 05:57:11;;;;;;;6.70;5.60;;;;;;;27.56;39.63;99836.52;109125;1256;60102;-76
2023/06/18 05:59:39;;;;;;;7.80;5.90;;;;;;;27.64;39.56;99841.52;109040;1257;66155;-76
2023/06/18 06:02:13;;;;;;;9.80;5.80;;;;;;;27.73;39.17;99843.98;109036;1256;58121;-76
2023/06/18 06:04:41;;;;;;;7.90;6.20;;;;;;;27.80;39.15;99850.93;109078;1256;58294;-76
2023/06/18 06:07:13;;;;;;;7.50;6.10;;;;;;;27.84;38.93;99851.14;108981;1257;65344;-75
2023/06/18 06:09:41;;;;;;;10.60;6.20;;;;;;;27.86;38.83;99850.64;108903;1257;59495;-76
2023/06/18 06:12:10;;;;;;;8.30;5.90;;;;;;;27.90;38.74;99851.80;108871;1257;66248;-76
2023/06/18 06:14:39;;;;;;;7.40;6.00;;;;;;;27.95;38.72;99851.76;108864;1256;58176;-76
2023/06/18 06:17:06;;;;;;;10.20;5.90;;;;;;;28.00;38.49;99852.48;108935;1256;58123;-75
2023/06/18 06:19:35;;;;;;;6.50;5.80;;;;;;;28.06;38.16;99854.20;108979;1256;67798;-76
2023/06/18 06:22:03;;;;;;;11.50;5.70;;;;;;;28.14;38.26;99859.05;108926;1256;58984;-76
2023/06/18 06:24:31;;;;;;;7.00;5.70;;;;;;;28.25;38.10;99858.73;109011;1256;66064;-76
2023/06/18 06:27:00;;;;;;;7.00;5.70;;;;;;;28.37;37.83;99863.80;108934;1257;58125;-77
2023/06/18 06:29:29;;;;;;;7.30;5.70;;;;;;;28.50;37.46;99864.79;108923;1257;58136;-78
2023/06/18 06:31:57;;;;;;;7.10;5.80;;;;;;;28.62;37.08;99865.86;109036;1257;65958;-75
2023/06/18 06:34:25;;;;;;;7.30;6.20;;;;;;;28.72;36.94;99867.01;109119;1257;59385;-75
2023/06/18 06:36:53;;;;;;;6.40;5.40;;;;;;;28.76;36.54;99864.78;109136;1256;66032;-85
2023/06/18 06:39:21;;;;;;;10.70;5.90;;;;;;;28.83;36.52;99866.35;109075;1256;58143;-80
2023/06/18 06:41:49;;;;;;;7.90;5.80;;;;;;;28.91;36.58;99868.69;109130;1256;58301;-76
2023/06/18 06:44:17;;;;;;;8.10;5.90;;;;;;;28.98;36.68;99867.79;109080;1256;67208;-76
2023/06/18 06:46:51;;;;;;;9.20;6.20;;;;;;;29.04;36.57;99871.34;109191;1255;60264;-77
2023/06/18 06:49:28;;;;;;;6.70;6.10;;;;;;;29.15;36.35;99870.43;109057;1255;65747;-76
2023/06/18 06:52:09;;;;;;;9.40;6.20;;;;;;;29.22;36.41;99865.81;109101;1257;58107;-78
2023/06/18 06:54:38;;;;;;;12.10;6.40;;;;;;;29.33;36.52;99862.65;109139;1257;58295;-78
2023/06/18 06:57:07;;;;;;;8.30;5.70;;;;;;;29.47;35.90;99863.39;109072;1257;66980;-78
2023/06/18 06:59:38;;;;;;;7.50;5.90;;;;;;;29.53;34.79;99863.96;109048;1257;58214;-78
2023/06/18 07:02:08;;;;;;;8.70;6.10;;;;;;;29.53;34.51;99861.61;109110;1257;66043;-77
2023/06/18 07:04:46;;;;;;;6.90;5.90;;;;;;;29.53;34.54;99865.50;109123;1257;58166;-77
2023/06/18 07:07:16;;;;;;;9.30;6.00;;;;;;;29.56;34.57;99869.33;109048;1257;58487;-78
2023/06/18 07:09:46;;;;;;;6.70;5.60;;;;;;;29.56;34.26;99874.34;108984;1257;66936;-77
2023/06/18 07:12:16;;;;;;;8.60;5.50;;;;;;;29.56;34.53;99874.61;109109;1257;60376;-77
2023/06/18 07:14:51;;;;;;;8.50;5.60;;;;;;;29.59;34.68;99873.81;109071;1257;63732;-76
2023/06/18 07:17:22;;;;;;;6.50;5.70;;;;;;;29.63;34.49;99873.85;108968;1256;58151;-77
2023/06/18 07:19:52;;;;;;;6.70;6.10;;;;;;;29.70;34.27;99876.69;109165;1257;58188;-77
2023/06/18 07:22:23;;;;;;;7.80;5.60;;;;;;;29.81;34.10;99875.20;109049;1256;66881;-77
2023/06/18 07:24:56;;;;;;;10.70;5.40;;;;;;;29.94;33.81;99869.52;109003;1257;60304;-79
2023/06/18 07:27:27;;;;;;;8.40;5.40;;;;;;;30.04;33.52;99866.66;109013;1257;66157;-77
2023/06/18 07:29:57;;;;;;;8.00;5.80;;;;;;;30.03;33.57;99868.77;108904;1257;58235;-77
2023/06/18 07:32:28;;;;;;;7.80;5.70;;;;;;;30.11;33.32;99869.89;108987;1256;58076;-74
2023/06/18 07:34:59;;;;;;;9.90;5.60;;;;;;;30.13;33.50;99870.19;109051;1256;66126;-81
2023/06/18 07:37:31;;;;;;;6.30;5.50;;;;;;;30.23;33.10;99871.98;109040;1255;60343;-76
2023/06/18 07:40:02;;;;;;;8.40;5.10;;;;;;;30.30;32.51;99875.62;109178;1256;65821;-75
2023/06/18 07:42:34;;;;;;;6.30;5.70;;;;;;;30.40;32.36;99873.66;109023;1255;58163;-76
2023/06/18 07:45:04;;;;;;;7.60;5.50;;;;;;;30.47;32.46;99874.85;109192;1256;58038;-75
2023/06/18 07:47:36;;;;;;;8.20;5.50;;;;;;;30.59;32.28;99876.76;109131;1256;63642;-77
2023/06/18 07:50:08;;;;;;;9.00;5.80;;;;;;;30.69;31.85;99878.23;109136;1256;59316;-77
2023/06/18 07:52:39;;;;;;;8.60;5.60;;;;;;;30.79;31.74;99874.95;109069;1255;66042;-79
2023/06/18 08:01:16;;;;;;;6.80;5.70;;;;;;;31.30;29.57;99880.41;102897;1290;599755;-78
2023/06/18 08:03:44;;;;;;;8.20;5.70;;;;;;;31.34;29.53;99881.95;106113;1260;59340;-77
2023/06/18 08:06:12;;;;;;;6.40;4.90;;;;;;;31.40;29.47;99881.69;106274;1261;59312;-80
2023/06/18 08:08:40;;;;;;;8.10;5.70;;;;;;;31.50;29.40;99881.59;105870;1253;66251;-80
2023/06/18 08:11:07;;;;;;;10.10;5.40;;;;;;;31.58;29.07;99878.21;106538;1260;61150;-79
2023/06/18 08:13:35;;;;;;;8.50;5.20;;;;;;;31.68;28.97;99881.61;106326;1257;67099;-78
2023/06/18 08:16:03;;;;;;;8.50;5.50;;;;;;;31.75;28.19;99881.89;106109;1256;126826;-77
2023/06/18 08:18:30;;;;;;;6.90;5.20;;;;;;;31.78;27.72;99881.15;106181;1257;59277;-81
2023/06/18 08:20:58;;;;;;;8.70;4.80;;;;;;;31.85;28.09;99878.19;106450;1256;65762;-79
2023/06/18 08:23:26;;;;;;;6.50;5.00;;;;;;;31.94;27.46;99880.09;106203;1251;59921;-79
2023/06/18 08:25:53;;;;;;;6.40;5.10;;;;;;;32.04;27.21;99878.39;106330;1251;66571;-78
2023/06/18 08:28:21;;;;;;;7.20;5.10;;;;;;;32.14;27.17;99881.00;106015;1260;59643;-80
2023/06/18 08:30:49;;;;;;;5.60;5.00;;;;;;;32.21;27.26;99878.96;106168;1257;59662;-81
2023/06/18 08:33:17;;;;;;;7.10;5.10;;;;;;;32.32;26.68;99880.49;105988;1257;66939;-81
2023/06/18 08:35:45;;;;;;;5.60;4.80;;;;;;;32.41;26.50;99884.02;106170;1251;59730;-79
2023/06/18 08:38:12;;;;;;;5.50;5.00;;;;;;;32.49;25.22;99880.67;106055;1257;66715;-82
2023/06/18 08:41:03;;;;;;;5.60;5.10;;;;;;;32.55;25.25;99880.41;106057;1256;59736;-82
2023/06/18 08:43:37;;;;;;;5.40;4.90;;;;;;;32.65;25.40;99882.20;106035;1260;59633;-83
2023/06/18 08:46:08;;;;;;;7.30;5.40;;;;;;;32.73;25.03;99878.17;106042;1261;68140;-82
2023/06/18 08:48:59;;;;;;;7.00;5.20;;;;;;;32.80;25.43;99878.30;106423;1251;60709;-83
2023/06/18 08:51:26;;;;;;;6.40;5.00;;;;;;;32.87;25.55;99881.09;105998;1257;66506;-83
2023/06/18 08:54:14;;;;;;;5.10;4.70;;;;;;;32.95;25.28;99881.43;106207;1251;60235;-87
2023/06/18 08:56:47;;;;;;;6.20;5.00;;;;;;;33.08;25.30;99880.05;105890;1259;59557;-86
2023/06/18 08:59:15;;;;;;;8.80;5.20;;;;;;;33.20;24.96;99877.40;105783;1254;66675;-80
2023/06/18 09:01:45;;;;;;;9.10;5.10;;;;;;;33.26;24.46;99878.30;106085;1260;60256;-79
2023/06/18 09:04:13;;;;;;;8.00;5.20;;;;;;;33.29;23.81;99878.98;106153;1257;65650;-77
2023/06/18 09:06:41;;;;;;;5.80;5.30;;;;;;;33.31;23.56;99877.77;107500;1256;59253;-78
2023/06/18 09:09:12;;;;;;;7.30;5.10;;;;;;;33.33;24.09;99875.90;109030;1254;58351;-76
2023/06/18 09:11:57;;;;;;;6.90;5.10;;;;;;;33.43;24.22;99876.72;105432;1292;600143;-76
2023/06/18 09:14:25;;;;;;;6.60;5.30;;;;;;;33.55;23.50;99875.77;107982;1270;57539;-81
2023/06/18 09:16:57;;;;;;;7.20;5.10;;;;;;;33.63;23.79;99866.50;108129;1270;57334;-78
2023/06/18 09:19:24;;;;;;;6.80;5.20;;;;;;;33.77;23.52;99869.23;108129;1273;65182;-76
2023/06/18 09:21:52;;;;;;;6.90;5.20;;;;;;;33.89;23.13;99868.12;108069;1267;59957;-77
2023/06/18 09:24:21;;;;;;;7.70;5.20;;;;;;;33.94;23.20;99865.94;108077;1267;66678;-79
2023/06/18 09:26:59;;;;;;;7.90;4.90;;;;;;;33.99;23.44;99864.61;108279;1268;57212;-79
2023/06/18 09:29:28;;;;;;;5.70;5.10;;;;;;;34.12;23.79;99866.35;108377;1266;57270;-76
2023/06/18 09:31:56;;;;;;;7.10;5.60;;;;;;;34.27;23.60;99865.04;108419;1266;64834;-76
2023/06/18 09:34:27;;;;;;;8.60;5.40;;;;;;;34.39;23.07;99861.48;108388;1267;58243;-80
2023/06/18 09:36:54;;;;;;;6.10;5.40;;;;;;;34.46;23.16;99862.45;108242;1268;65635;-78
2023/06/18 09:39:24;;;;;;;6.40;5.30;;;;;;;34.53;22.81;99857.52;108423;1267;58714;-81
2023/06/18 09:41:55;;;;;;;7.10;5.60;;;;;;;34.60;22.87;99852.67;108521;1271;57902;-82
2023/06/18 09:44:23;;;;;;;8.20;5.00;;;;;;;34.69;23.24;99853.00;108398;1267;66274;-80
2023/06/18 09:46:56;;;;;;;7.40;5.40;;;;;;;34.86;23.28;99853.66;108319;1266;60295;-80
2023/06/18 09:49:25;;;;;;;6.50;5.60;;;;;;;35.03;22.25;99858.45;108457;1270;65183;-80
2023/06/18 09:51:53;;;;;;;6.70;5.30;;;;;;;35.08;21.85;99859.31;108376;1270;57685;-77
2023/06/18 09:54:21;;;;;;;5.70;5.10;;;;;;;35.14;22.03;99859.11;108475;1266;57613;-79
2023/06/18 09:56:56;;;;;;;7.20;5.80;;;;;;;35.24;22.17;99862.08;108294;1267;66605;-80
2023/06/18 09:59:24;;;;;;;6.60;5.40;;;;;;;35.37;22.12;99862.23;108463;1267;60555;-79
2023/06/18 10:01:52;;;;;;;5.50;5.00;;;;;;;35.52;21.74;99858.61;108452;1267;66392;-83
2023/06/18 10:04:20;;;;;;;8.30;5.80;;;;;;;35.67;21.70;99856.55;108419;1270;57433;-81
2023/06/18 10:07:00;;;;;;;5.90;5.40;;;;;;;35.79;21.45;99854.75;108443;1267;57535;-79
2023/06/18 10:09:32;;;;;;;8.00;5.40;;;;;;;35.84;20.85;99858.00;108322;1267;64909;-79
2023/06/18 10:12:01;;;;;;;6.70;5.30;;;;;;;35.85;20.69;99847.82;108227;1267;70462;-78
2023/06/18 10:14:30;;;;;;;10.10;5.30;;;;;;;35.82;20.65;99850.89;108242;1267;66436;-78
2023/06/18 10:17:14;;;;;;;8.80;5.40;;;;;;;35.79;20.24;99854.55;108431;1267;57454;-76
2023/06/18 10:19:46;;;;;;;6.30;5.30;;;;;;;35.71;20.72;99847.55;108416;1267;57291;-74
2023/06/18 10:22:15;;;;;;;6.30;5.50;;;;;;;35.70;21.31;99848.41;108345;1270;66049;-77
2023/06/18 10:24:56;;;;;;;5.80;5.30;;;;;;;35.76;20.97;99851.89;108361;1270;59620;-81
2023/06/18 10:27:24;;;;;;;7.00;5.70;;;;;;;35.86;20.98;99853.14;108394;1269;65849;-79
2023/06/18 10:29:57;;;;;;;6.60;5.00;;;;;;;36.05;21.23;99853.64;108308;1270;62354;-81
2023/06/18 10:32:31;;;;;;;7.70;5.70;;;;;;;36.24;21.37;99854.94;108191;1267;57386;-80
2023/06/18 10:35:00;;;;;;;6.20;5.60;;;;;;;36.47;20.66;99852.48;108282;1270;67015;-77
2023/06/18 10:37:30;;;;;;;6.30;5.30;;;;;;;36.59;20.99;99852.38;108224;1269;59288;-78
2023/06/18 10:39:58;;;;;;;6.20;5.10;;;;;;;36.77;21.23;99857.35;108328;1269;65968;-78
2023/06/18 10:42:28;;;;;;;6.90;5.50;;;;;;;37.01;21.32;99852.98;108666;1264;57544;-79
2023/06/18 10:45:08;;;;;;;7.90;5.60;;;;;;;37.22;20.98;99854.26;108595;1263;57245;-77
2023/06/18 10:47:36;;;;;;;6.30;5.30;;;;;;;37.44;20.83;99856.55;108514;1264;65569;-78
2023/06/18 10:50:04;;;;;;;5.80;5.20;;;;;;;37.59;20.48;99853.45;108584;1263;59838;-79
2023/06/18 10:52:36;;;;;;;6.30;4.90;;;;;;;37.67;20.39;99858.86;108666;1263;65207;-78
2023/06/18 10:55:10;;;;;;;5.70;5.10;;;;;;;37.77;20.40;99856.86;108577;1266;57505;-75
2023/06/18 10:57:41;;;;;;;9.50;5.20;;;;;;;37.92;20.41;99850.41;108786;1264;57200;-77
2023/06/18 11:00:21;;;;;;;7.20;5.80;;;;;;;38.01;20.00;99854.57;108644;1263;74415;-77
2023/06/18 11:02:51;;;;;;;6.60;5.80;;;;;;;38.05;19.68;99853.27;108742;1263;59652;-78
2023/06/18 11:05:31;;;;;;;5.90;5.30;;;;;;;38.12;20.07;99854.01;108690;1263;66274;-79
2023/06/18 11:08:00;;;;;;;7.10;5.10;;;;;;;38.22;19.85;99852.15;108752;1263;57340;-80
2023/06/18 11:10:36;;;;;;;7.50;5.20;;;;;;;38.35;19.62;99850.81;108791;1263;57336;-80
2023/06/18 11:13:04;;;;;;;6.00;5.40;;;;;;;38.49;19.43;99852.93;108800;1263;66566;-79
2023/06/18 11:15:33;;;;;;;6.00;5.50;;;;;;;38.59;18.98;99848.45;108748;1263;59578;-80
2023/06/18 11:18:01;;;;;;;5.70;5.20;;;;;;;38.62;19.06;99847.36;108746;1263;65978;-78
2023/06/18 11:20:30;;;;;;;6.20;5.00;;;;;;;38.70;19.27;99845.90;108764;1263;57348;-79
2023/06/18 11:23:01;;;;;;;8.40;5.00;;;;;;;38.81;19.42;99850.38;108773;1263;57412;-80
2023/06/18 11:25:29;;;;;;;5.80;5.20;;;;;;;38.89;18.28;99853.86;108793;1263;66949;-81
2023/06/18 11:28:02;;;;;;;6.40;5.40;;;;;;;38.87;17.88;99851.69;108783;1263;60090;-80
2023/06/18 11:30:31;;;;;;;8.60;5.60;;;;;;;38.75;18.34;99851.67;108642;1264;66120;-81
2023/06/18 11:33:00;;;;;;;6.50;5.80;;;;;;;38.75;18.78;99853.59;108656;1263;57381;-80
2023/06/18 11:35:29;;;;;;;8.80;5.70;;;;;;;38.90;18.76;99853.63;108963;1259;57427;-80
2023/06/18 11:37:57;;;;;;;9.20;5.80;;;;;;;39.06;18.92;99858.05;109013;1259;65654;-81
2023/06/18 11:40:25;;;;;;;6.30;5.60;;;;;;;39.23;18.17;99855.73;109056;1259;60287;-80
2023/06/18 11:42:52;;;;;;;8.10;5.50;;;;;;;39.24;17.70;99862.16;109032;1259;65036;-79
2023/06/18 11:45:20;;;;;;;6.00;5.40;;;;;;;39.16;17.58;99860.23;108994;1259;57393;-80
2023/06/18 11:47:50;;;;;;;6.60;5.90;;;;;;;39.01;17.68;99855.02;109052;1259;57527;-79
2023/06/18 11:50:22;;;;;;;7.70;5.70;;;;;;;38.89;18.04;99858.79;108961;1259;65556;-79
2023/06/18 11:52:49;;;;;;;5.70;5.10;;;;;;;38.84;18.16;99859.73;109160;1256;59228;-79
2023/06/18 11:55:18;;;;;;;6.50;5.50;;;;;;;38.82;18.27;99856.75;109124;1257;64838;-80
2023/06/18 11:57:46;;;;;;;7.50;5.60;;;;;;;38.91;18.65;99854.96;109071;1258;57233;-80
2023/06/18 12:00:14;;;;;;;6.50;5.50;;;;;;;39.11;18.39;99857.52;109117;1257;57308;-79
2023/06/18 12:02:41;;;;;;;6.10;5.10;;;;;;;39.22;18.15;99856.09;109016;1257;65609;-80
2023/06/18 12:05:10;;;;;;;7.00;5.00;;;;;;;39.25;18.16;99847.44;109104;1257;60603;-79